createdAt,value
2023-03-15T00:00:12.498Z,5.78
2023-03-15T00:00:55.301Z,5.32
2023-03-15T00:01:37.013Z,4.28
2023-03-15T00:02:18.611Z,4.28
2023-03-15T00:03:04.040Z,2.90
2023-03-15T00:03:46.333Z,3.58
2023-03-15T00:04:28.851Z,3.40
2023-03-15T00:05:13.506Z,3.92
2023-03-15T00:05:55.233Z,2.80
2023-03-15T00:06:36.885Z,3.67
2023-03-15T00:07:18.536Z,3.97
2023-03-15T00:08:04.336Z,3.00
2023-03-15T00:08:47.655Z,3.40
2023-03-15T00:09:29.449Z,4.20
2023-03-15T00:10:11.404Z,3.15
2023-03-15T00:10:53.039Z,5.78
2023-03-15T00:11:34.821Z,4.03
2023-03-15T00:12:16.444Z,3.50
2023-03-15T00:12:58.040Z,4.05
2023-03-15T00:13:39.788Z,4.25
2023-03-15T00:14:22.179Z,4.82
2023-03-15T00:15:04.104Z,3.33
2023-03-15T00:15:50.475Z,6.38
2023-03-15T00:16:33.037Z,3.08
2023-03-15T00:17:14.942Z,5.30
2023-03-15T00:17:56.511Z,4.95
2023-03-15T00:18:38.161Z,3.35
2023-03-15T00:19:19.765Z,5.20
2023-03-15T00:20:01.713Z,3.42
2023-03-15T00:20:43.882Z,5.50
2023-03-15T00:21:25.579Z,5.35
2023-03-15T00:22:07.581Z,4.78
2023-03-15T00:22:49.255Z,4.45
2023-03-15T00:23:31.684Z,4.45
2023-03-15T00:24:13.352Z,5.53
2023-03-15T00:24:55.026Z,4.75
2023-03-15T00:25:37.330Z,3.15
2023-03-15T00:26:19.038Z,4.57
2023-03-15T00:27:00.685Z,5.07
2023-03-15T00:27:42.361Z,5.57
2023-03-15T00:28:23.991Z,5.68
2023-03-15T00:29:07.051Z,3.95
2023-03-15T00:29:48.651Z,4.63
2023-03-15T00:30:30.277Z,3.17
2023-03-15T00:31:23.858Z,6.60
2023-03-15T00:32:05.599Z,7.47
2023-03-15T00:32:47.619Z,4.82
2023-03-15T00:33:29.350Z,6.15
2023-03-15T00:34:13.823Z,4.13
2023-03-15T00:34:55.807Z,4.40
2023-03-15T00:35:42.634Z,5.22
2023-03-15T00:36:24.879Z,4.20
2023-03-15T00:37:06.602Z,5.70
2023-03-15T00:37:48.201Z,4.30
2023-03-15T00:38:30.503Z,5.63
2023-03-15T00:39:12.092Z,5.45
2023-03-15T00:39:55.695Z,3.97
2023-03-15T00:40:38.163Z,4.68
2023-03-15T00:41:21.744Z,5.70
2023-03-15T00:42:03.873Z,4.38
2023-03-15T00:42:49.974Z,4.90
2023-03-15T00:43:31.767Z,4.93
2023-03-15T00:44:13.409Z,4.50
2023-03-15T00:44:55.839Z,4.78
2023-03-15T00:45:37.967Z,5.30
2023-03-15T00:46:20.354Z,8.02
2023-03-15T00:47:02.031Z,4.18
2023-03-15T00:47:43.738Z,4.53
2023-03-15T00:48:25.332Z,4.40
2023-03-15T00:49:06.917Z,4.68
2023-03-15T00:49:48.614Z,3.92
2023-03-15T00:50:30.258Z,3.97
2023-03-15T00:51:21.387Z,5.25
2023-03-15T00:52:03.208Z,4.35
2023-03-15T00:52:45.079Z,4.63
2023-03-15T00:53:27.655Z,3.42
2023-03-15T00:54:13.642Z,5.88
2023-03-15T00:54:55.843Z,3.33
2023-03-15T00:55:37.690Z,4.60
2023-03-15T00:56:25.689Z,4.82
2023-03-15T00:57:07.402Z,3.92
2023-03-15T00:57:49.842Z,4.47
2023-03-15T00:58:31.609Z,4.00
2023-03-15T00:59:13.328Z,3.70
2023-03-15T00:59:55.053Z,3.28
2023-03-15T01:00:38.262Z,3.55
2023-03-15T01:01:29.145Z,3.38
2023-03-15T01:02:11.413Z,3.20
2023-03-15T01:02:54.720Z,4.63
2023-03-15T01:03:37.115Z,3.17
2023-03-15T01:04:18.751Z,4.75
2023-03-15T01:05:01.729Z,5.68
2023-03-15T01:05:43.390Z,3.22
2023-03-15T01:06:28.130Z,3.38
2023-03-15T01:07:09.897Z,2.67
2023-03-15T01:07:53.143Z,3.95
2023-03-15T01:08:34.785Z,5.05
2023-03-15T01:09:16.414Z,4.40
2023-03-15T01:09:58.154Z,3.33
2023-03-15T01:10:39.751Z,3.10
2023-03-15T01:11:25.297Z,4.40
2023-03-15T01:12:07.345Z,2.40
2023-03-15T01:12:48.961Z,5.22
2023-03-15T01:13:30.585Z,3.88
2023-03-15T01:14:12.335Z,4.18
2023-03-15T01:14:53.976Z,2.58
2023-03-15T01:15:37.332Z,3.50
2023-03-15T01:16:19.206Z,2.63
2023-03-15T01:17:00.881Z,3.00
2023-03-15T01:17:43.378Z,4.45
2023-03-15T01:18:25.447Z,3.22
2023-03-15T01:19:07.147Z,2.80
2023-03-15T01:19:49.028Z,4.18
2023-03-15T01:20:30.638Z,4.10
2023-03-15T01:21:14.738Z,2.50
2023-03-15T01:21:56.472Z,3.40
2023-03-15T01:22:38.069Z,4.35
2023-03-15T01:23:19.781Z,2.45
2023-03-15T01:24:02.469Z,4.47
2023-03-15T01:24:44.330Z,2.13
2023-03-15T01:25:26.508Z,4.03
2023-03-15T01:26:12.521Z,2.55
2023-03-15T01:26:54.103Z,3.45
2023-03-15T01:27:35.831Z,2.75
2023-03-15T01:28:17.734Z,3.17
2023-03-15T01:28:59.350Z,2.70
2023-03-15T01:29:41.223Z,2.22
2023-03-15T01:30:23.819Z,2.30
2023-03-15T01:31:05.758Z,1.92
2023-03-15T01:31:48.689Z,2.08
2023-03-15T01:32:30.421Z,2.38
2023-03-15T01:33:12.049Z,3.28
2023-03-15T01:33:54.296Z,2.67
2023-03-15T01:34:36.752Z,1.65
2023-03-15T01:35:18.439Z,3.35
2023-03-15T01:36:05.818Z,1.42
2023-03-15T01:36:52.285Z,2.05
2023-03-15T01:37:34.459Z,2.67
2023-03-15T01:38:16.262Z,3.42
2023-03-15T01:38:58.653Z,2.22
2023-03-15T01:39:48.749Z,3.25
2023-03-15T01:40:30.388Z,2.65
2023-03-15T01:41:13.937Z,1.90
2023-03-15T01:41:57.308Z,1.75
2023-03-15T01:42:53.165Z,3.20
2023-03-15T01:43:35.459Z,2.00
2023-03-15T01:44:19.393Z,2.55
2023-03-15T01:45:02.301Z,1.88
2023-03-15T01:46:01.735Z,2.53
2023-03-15T01:46:46.384Z,2.75
2023-03-15T01:47:33.271Z,1.48
2023-03-15T01:48:16.637Z,2.70
2023-03-15T01:49:04.145Z,2.97
2023-03-15T01:49:58.722Z,1.85
2023-03-15T01:50:40.397Z,3.00
2023-03-15T01:51:46.738Z,3.15
2023-03-15T01:52:34.535Z,2.25
2023-03-15T01:53:17.927Z,3.10
2023-03-15T01:54:09.258Z,3.63
2023-03-15T01:55:29.489Z,3.78
2023-03-15T01:56:18.023Z,2.97
2023-03-15T01:57:12.768Z,1.88
2023-03-15T01:57:58.838Z,2.38
2023-03-15T01:58:45.490Z,2.35
2023-03-15T01:59:32.041Z,1.80
2023-03-15T02:00:19.866Z,1.75
2023-03-15T02:01:09.925Z,3.08
2023-03-15T02:01:56.206Z,2.25
2023-03-15T02:02:46.360Z,2.50
2023-03-15T02:03:46.513Z,2.85
2023-03-15T02:04:34.058Z,1.70
2023-03-15T02:05:25.470Z,1.23
2023-03-15T02:06:09.715Z,1.63
2023-03-15T02:07:03.760Z,2.53
2023-03-15T02:07:54.582Z,1.88
2023-03-15T02:08:43.630Z,2.08
2023-03-15T02:09:36.009Z,3.45
2023-03-15T02:10:25.319Z,2.30
2023-03-15T02:11:09.070Z,1.88
2023-03-15T02:11:51.179Z,2.95
2023-03-15T02:12:40.603Z,2.00
2023-03-15T02:13:24.265Z,1.52
2023-03-15T02:14:09.653Z,1.20
2023-03-15T02:14:54.187Z,2.85
2023-03-15T02:15:37.965Z,1.05
2023-03-15T02:16:23.616Z,3.65
2023-03-15T02:17:12.207Z,1.90
2023-03-15T02:17:54.007Z,2.45
2023-03-15T02:18:37.419Z,1.60
2023-03-15T02:19:41.833Z,1.58
2023-03-15T02:20:44.632Z,1.73
2023-03-15T02:21:54.032Z,3.28
2023-03-15T02:22:56.623Z,3.08
2023-03-15T02:23:38.507Z,1.50
2023-03-15T02:24:32.022Z,3.22
2023-03-15T02:25:30.399Z,1.85
2023-03-15T02:26:21.167Z,1.05
2023-03-15T02:27:03.564Z,1.30
2023-03-15T02:27:45.807Z,2.58
2023-03-15T02:28:30.541Z,3.13
2023-03-15T02:29:12.839Z,2.03
2023-03-15T02:29:55.555Z,1.90
2023-03-15T02:30:37.721Z,2.33
2023-03-15T02:31:20.492Z,2.05
2023-03-15T02:32:06.435Z,1.23
2023-03-15T02:32:48.624Z,2.20
2023-03-15T02:33:35.962Z,2.17
2023-03-15T02:34:17.801Z,2.40
2023-03-15T02:34:59.452Z,1.45
2023-03-15T02:35:41.135Z,2.35
2023-03-15T02:36:28.059Z,3.97
2023-03-15T02:37:09.810Z,3.85
2023-03-15T02:37:51.452Z,2.40
2023-03-15T02:38:33.067Z,3.53
2023-03-15T02:39:17.381Z,2.78
2023-03-15T02:39:59.984Z,2.90
2023-03-15T02:40:41.664Z,3.22
2023-03-15T02:41:34.673Z,1.63
2023-03-15T02:42:17.521Z,3.28
2023-03-15T02:43:03.131Z,2.00
2023-03-15T02:43:47.149Z,1.55
2023-03-15T02:44:33.695Z,1.15
2023-03-15T02:45:15.563Z,3.40
2023-03-15T02:45:57.850Z,2.13
2023-03-15T02:46:40.436Z,2.55
2023-03-15T02:47:29.102Z,2.63
2023-03-15T02:48:12.941Z,1.35
2023-03-15T02:48:55.038Z,2.75
2023-03-15T02:49:43.912Z,2.50
2023-03-15T02:50:25.978Z,2.17
2023-03-15T02:51:07.616Z,2.72
2023-03-15T02:51:50.423Z,0.80
2023-03-15T02:52:31.984Z,1.52
2023-03-15T02:53:13.587Z,3.63
2023-03-15T02:53:55.425Z,2.78
2023-03-15T02:54:37.098Z,2.42
2023-03-15T02:55:19.675Z,2.00
2023-03-15T02:56:01.698Z,1.25
2023-03-15T02:56:44.317Z,3.50
2023-03-15T02:57:25.986Z,2.00
2023-03-15T02:58:09.929Z,1.55
2023-03-15T02:58:51.650Z,2.00
2023-03-15T02:59:33.292Z,2.85
2023-03-15T03:00:15.758Z,3.00
2023-03-15T03:00:58.474Z,2.17
2023-03-15T03:01:40.306Z,3.45
2023-03-15T03:02:22.072Z,3.33
2023-03-15T03:03:03.827Z,2.58
2023-03-15T03:03:47.448Z,1.80
2023-03-15T03:04:29.055Z,2.58
2023-03-15T03:05:12.856Z,2.50
2023-03-15T03:05:54.538Z,1.80
2023-03-15T03:06:36.335Z,1.80
2023-03-15T03:07:19.127Z,1.48
2023-03-15T03:08:04.423Z,2.15
2023-03-15T03:08:47.290Z,1.30
2023-03-15T03:09:31.795Z,1.50
2023-03-15T03:10:15.917Z,2.35
2023-03-15T03:11:04.767Z,2.50
2023-03-15T03:11:46.549Z,1.73
2023-03-15T03:12:28.124Z,1.65
2023-03-15T03:13:09.774Z,2.28
2023-03-15T03:13:53.645Z,1.50
2023-03-15T03:14:35.354Z,1.92
2023-03-15T03:15:18.326Z,2.15
2023-03-15T03:15:59.979Z,1.98
2023-03-15T03:16:44.628Z,1.92
2023-03-15T03:17:27.389Z,1.27
2023-03-15T03:18:09.172Z,1.30
2023-03-15T03:18:51.296Z,2.15
2023-03-15T03:19:32.890Z,3.35
2023-03-15T03:20:15.180Z,1.65
2023-03-15T03:21:00.663Z,1.33
2023-03-15T03:21:43.372Z,2.70
2023-03-15T03:22:26.125Z,2.60
2023-03-15T03:23:07.741Z,1.77
2023-03-15T03:23:49.563Z,2.15
2023-03-15T03:24:31.292Z,2.88
2023-03-15T03:25:13.144Z,1.00
2023-03-15T03:25:56.467Z,1.88
2023-03-15T03:26:38.414Z,1.73
2023-03-15T03:27:21.341Z,5.15
2023-03-15T03:28:04.353Z,1.63
2023-03-15T03:28:47.896Z,2.13
2023-03-15T03:29:30.633Z,1.95
2023-03-15T03:30:15.268Z,2.92
2023-03-15T03:31:04.989Z,3.25
2023-03-15T03:31:47.203Z,2.70
2023-03-15T03:32:29.058Z,2.55
2023-03-15T03:33:10.728Z,1.85
2023-03-15T03:33:52.829Z,1.25
2023-03-15T03:34:35.043Z,2.50
2023-03-15T03:35:17.023Z,1.25
2023-03-15T03:36:02.337Z,2.22
2023-03-15T03:36:44.835Z,2.90
2023-03-15T03:37:30.857Z,2.10
2023-03-15T03:38:16.290Z,2.28
2023-03-15T03:39:03.524Z,1.60
2023-03-15T03:39:45.424Z,2.38
2023-03-15T03:40:27.030Z,3.78
2023-03-15T03:41:10.701Z,3.30
2023-03-15T03:41:53.165Z,2.28
2023-03-15T03:42:35.883Z,2.63
2023-03-15T03:43:18.548Z,1.60
2023-03-15T03:44:00.720Z,2.35
2023-03-15T03:44:42.345Z,2.00
2023-03-15T03:45:24.409Z,2.53
2023-03-15T03:46:09.438Z,2.65
2023-03-15T03:46:55.343Z,3.58
2023-03-15T03:47:36.934Z,1.80
2023-03-15T03:48:18.597Z,3.50
2023-03-15T03:49:00.241Z,3.10
2023-03-15T03:49:42.840Z,2.58
2023-03-15T03:50:24.450Z,2.53
2023-03-15T03:51:06.204Z,1.77
2023-03-15T03:51:47.899Z,2.17
2023-03-15T03:52:29.590Z,1.52
2023-03-15T03:53:19.840Z,3.05
2023-03-15T03:54:02.160Z,1.70
2023-03-15T03:54:43.946Z,4.25
2023-03-15T03:55:25.776Z,2.17
2023-03-15T03:56:09.002Z,4.13
2023-03-15T03:56:51.788Z,1.75
2023-03-15T03:57:33.944Z,2.40
2023-03-15T03:58:15.945Z,3.30
2023-03-15T03:59:03.214Z,2.00
2023-03-15T04:00:04.566Z,2.65
2023-03-15T04:00:56.508Z,1.70
2023-03-15T04:01:40.247Z,2.05
2023-03-15T04:02:22.419Z,1.83
2023-03-15T04:03:12.827Z,2.90
2023-03-15T04:03:58.537Z,3.08
2023-03-15T04:04:43.305Z,2.22
2023-03-15T04:05:31.198Z,2.88
2023-03-15T04:06:12.940Z,2.35
2023-03-15T04:06:58.181Z,3.35
2023-03-15T04:07:44.795Z,3.53
2023-03-15T04:08:28.634Z,2.35
2023-03-15T04:09:12.413Z,3.42
2023-03-15T04:09:57.184Z,3.80
2023-03-15T04:10:38.976Z,2.60
2023-03-15T04:11:20.665Z,2.08
2023-03-15T04:12:10.163Z,2.13
2023-03-15T04:12:55.735Z,2.10
2023-03-15T04:13:37.371Z,3.67
2023-03-15T04:14:19.713Z,2.63
2023-03-15T04:15:04.423Z,3.22
2023-03-15T04:15:48.657Z,3.83
2023-03-15T04:16:30.872Z,2.70
2023-03-15T04:17:18.355Z,2.40
2023-03-15T04:17:59.959Z,2.97
2023-03-15T04:18:47.606Z,1.90
2023-03-15T04:19:29.990Z,2.45
2023-03-15T04:20:12.909Z,4.10
2023-03-15T04:20:58.167Z,2.05
2023-03-15T04:21:46.972Z,2.88
2023-03-15T04:22:35.492Z,4.82
2023-03-15T04:23:42.382Z,2.95
2023-03-15T04:24:39.718Z,3.45
2023-03-15T04:25:39.364Z,2.78
2023-03-15T04:26:38.170Z,4.28
2023-03-15T04:27:35.274Z,3.83
2023-03-15T04:28:38.053Z,4.22
2023-03-15T04:29:48.556Z,5.75
2023-03-15T04:30:37.711Z,6.75
2023-03-15T04:31:43.119Z,8.60
2023-03-15T04:33:03.526Z,11.15
2023-03-15T04:34:14.314Z,10.60
2023-03-15T04:35:09.764Z,8.18
2023-03-15T04:36:02.830Z,6.70
2023-03-15T04:37:03.318Z,5.55
2023-03-15T04:38:04.015Z,4.95
2023-03-15T04:39:05.360Z,4.90
2023-03-15T04:40:07.935Z,6.72
2023-03-15T04:41:01.582Z,5.97
2023-03-15T04:42:01.031Z,4.25
2023-03-15T04:42:48.484Z,7.22
2023-03-15T04:43:30.002Z,5.18
2023-03-15T04:44:40.868Z,5.03
2023-03-15T04:45:31.913Z,4.57
2023-03-15T04:46:36.726Z,6.07
2023-03-15T04:47:31.664Z,4.57
2023-03-15T04:48:37.204Z,4.25
2023-03-15T04:49:36.088Z,8.45
2023-03-15T04:50:52.941Z,6.43
2023-03-15T04:51:53.073Z,4.97
2023-03-15T04:52:53.013Z,3.95
2023-03-15T04:53:53.201Z,4.03
2023-03-15T04:55:13.320Z,3.85
2023-03-15T04:56:11.984Z,4.20
2023-03-15T04:57:00.607Z,3.35
2023-03-15T04:58:01.113Z,1.98
2023-03-15T04:59:10.661Z,3.75
2023-03-15T05:00:15.688Z,3.47
2023-03-15T05:01:16.334Z,4.15
2023-03-15T05:02:05.143Z,3.33
2023-03-15T05:02:56.701Z,2.80
2023-03-15T05:03:59.180Z,3.47
2023-03-15T05:05:01.568Z,2.35
2023-03-15T05:05:58.791Z,3.67
2023-03-15T05:07:03.782Z,3.35
2023-03-15T05:07:56.825Z,8.20
2023-03-15T05:08:57.262Z,6.32
2023-03-15T05:09:48.073Z,10.13
2023-03-15T05:10:33.309Z,7.63
2023-03-15T05:11:20.970Z,6.10
2023-03-15T05:12:25.244Z,4.28
2023-03-15T05:13:25.424Z,3.33
2023-03-15T05:14:27.310Z,3.58
2023-03-15T05:15:22.800Z,3.13
2023-03-15T05:16:29.894Z,5.47
2023-03-15T05:17:34.145Z,3.72
2023-03-15T05:18:38.826Z,5.88
2023-03-15T05:19:34.693Z,5.97
2023-03-15T05:20:35.350Z,15.75
2023-03-15T05:21:26.127Z,17.55
2023-03-15T05:22:36.686Z,10.13
2023-03-15T05:23:38.773Z,9.02
2023-03-15T05:24:38.828Z,8.18
2023-03-15T05:25:39.581Z,10.48
2023-03-15T05:26:41.377Z,17.60
2023-03-15T05:27:49.332Z,17.05
2023-03-15T05:28:56.897Z,18.73
2023-03-15T05:29:41.091Z,12.98
2023-03-15T05:30:55.025Z,9.68
2023-03-15T05:31:55.410Z,7.65
2023-03-15T05:32:56.015Z,9.20
2023-03-15T05:33:56.488Z,8.90
2023-03-15T05:34:54.957Z,8.57
2023-03-15T05:35:59.104Z,8.00
2023-03-15T05:36:52.458Z,11.75
2023-03-15T05:37:49.158Z,10.35
2023-03-15T05:38:31.224Z,12.25
2023-03-15T05:39:42.492Z,21.50
2023-03-15T05:40:26.962Z,12.05
2023-03-15T05:41:18.077Z,8.95
2023-03-15T05:42:25.054Z,7.03
2023-03-15T05:43:21.866Z,6.40
2023-03-15T05:44:10.001Z,6.18
2023-03-15T05:45:10.449Z,6.13
2023-03-15T05:46:02.586Z,6.00
2023-03-15T05:47:02.891Z,6.93
2023-03-15T05:48:02.456Z,5.38
2023-03-15T05:49:00.117Z,5.25
2023-03-15T05:49:53.433Z,7.05
2023-03-15T05:50:48.173Z,8.27
2023-03-15T05:51:45.871Z,7.88
2023-03-15T05:52:27.639Z,7.00
2023-03-15T05:53:19.476Z,8.65
2023-03-15T05:54:14.093Z,7.70
2023-03-15T05:55:22.174Z,32.30
2023-03-15T05:56:22.335Z,13.68
2023-03-15T05:57:25.154Z,10.77
2023-03-15T05:58:20.197Z,8.80
2023-03-15T05:59:16.195Z,7.78
2023-03-15T06:00:18.770Z,8.73
2023-03-15T06:01:04.444Z,6.90
2023-03-15T06:02:06.345Z,7.28
2023-03-15T06:02:59.935Z,6.72
2023-03-15T06:04:00.267Z,5.95
2023-03-15T06:04:45.535Z,7.60
2023-03-15T06:05:31.278Z,6.25
2023-03-15T06:06:17.732Z,5.65
2023-03-15T06:06:59.398Z,6.85
2023-03-15T06:07:41.629Z,7.30
2023-03-15T06:08:23.495Z,7.10
2023-03-15T06:09:05.694Z,6.45
2023-03-15T06:09:47.473Z,6.45
2023-03-15T06:10:29.595Z,5.40
2023-03-15T06:11:13.810Z,7.55
2023-03-15T06:11:56.019Z,6.72
2023-03-15T06:12:37.945Z,5.57
2023-03-15T06:13:19.731Z,5.05
2023-03-15T06:14:02.087Z,6.45
2023-03-15T06:14:52.210Z,6.68
2023-03-15T06:15:33.854Z,5.85
2023-03-15T06:16:15.926Z,5.97
2023-03-15T06:17:01.645Z,5.63
2023-03-15T06:17:44.791Z,8.63
2023-03-15T06:18:26.437Z,8.82
2023-03-15T06:19:08.143Z,5.78
2023-03-15T06:19:49.887Z,9.45
2023-03-15T06:20:32.002Z,5.90
2023-03-15T06:21:19.587Z,4.18
2023-03-15T06:22:01.939Z,4.03
2023-03-15T06:22:50.373Z,5.93
2023-03-15T06:23:52.044Z,4.68
2023-03-15T06:24:33.998Z,5.05
2023-03-15T06:25:15.855Z,5.10
2023-03-15T06:25:57.499Z,5.90
2023-03-15T06:26:39.871Z,4.20
2023-03-15T06:27:22.245Z,3.95
2023-03-15T06:28:05.172Z,4.57
2023-03-15T06:28:47.060Z,5.25
2023-03-15T06:29:29.489Z,4.03
2023-03-15T06:30:13.932Z,3.45
2023-03-15T06:30:56.598Z,4.32
2023-03-15T06:31:44.839Z,4.78
2023-03-15T06:32:27.260Z,4.18
2023-03-15T06:33:08.902Z,3.50
2023-03-15T06:33:51.006Z,4.75
2023-03-15T06:34:32.774Z,6.55
2023-03-15T06:35:14.565Z,3.40
2023-03-15T06:35:56.701Z,4.32
2023-03-15T06:36:38.687Z,5.43
2023-03-15T06:37:34.190Z,4.95
2023-03-15T06:38:16.669Z,4.93
2023-03-15T06:38:58.300Z,4.90
2023-03-15T06:39:40.444Z,3.50
2023-03-15T06:40:22.100Z,5.53
2023-03-15T06:41:05.143Z,7.15
2023-03-15T06:41:49.026Z,6.47
2023-03-15T06:42:36.144Z,4.47
2023-03-15T06:43:19.695Z,4.57
2023-03-15T06:44:01.904Z,6.18
2023-03-15T06:44:43.780Z,4.40
2023-03-15T06:45:25.519Z,3.63
2023-03-15T06:46:08.327Z,5.53
2023-03-15T06:46:50.077Z,3.25
2023-03-15T06:47:32.764Z,4.32
2023-03-15T06:48:15.061Z,2.67
2023-03-15T06:48:57.082Z,3.20
2023-03-15T06:49:40.303Z,3.80
2023-03-15T06:50:21.967Z,3.50
2023-03-15T06:51:05.874Z,3.35
2023-03-15T06:51:47.585Z,4.65
2023-03-15T06:52:29.263Z,3.22
2023-03-15T06:53:11.045Z,3.85
2023-03-15T06:53:52.696Z,3.95
2023-03-15T06:54:35.356Z,3.55
2023-03-15T06:55:18.504Z,4.47
2023-03-15T06:56:00.807Z,5.32
2023-03-15T06:56:42.497Z,1.85
2023-03-15T06:57:24.035Z,2.15
2023-03-15T06:58:05.632Z,3.70
2023-03-15T06:58:47.206Z,2.10
2023-03-15T06:59:29.018Z,3.75
2023-03-15T07:00:11.725Z,5.50
2023-03-15T07:00:53.339Z,4.55
2023-03-15T07:01:35.201Z,6.75
2023-03-15T07:02:18.709Z,2.75
2023-03-15T07:03:00.561Z,3.55
2023-03-15T07:03:42.510Z,2.78
2023-03-15T07:04:24.255Z,4.00
2023-03-15T07:05:06.508Z,2.80
2023-03-15T07:05:52.334Z,3.35
2023-03-15T07:06:34.085Z,3.63
2023-03-15T07:07:16.414Z,2.88
2023-03-15T07:07:58.313Z,3.90
2023-03-15T07:08:39.992Z,3.80
2023-03-15T07:09:21.601Z,2.35
2023-03-15T07:10:03.480Z,3.70
2023-03-15T07:10:45.269Z,2.55
2023-03-15T07:11:26.943Z,3.78
2023-03-15T07:12:11.724Z,3.33
2023-03-15T07:12:53.382Z,2.97
2023-03-15T07:13:34.994Z,4.30
2023-03-15T07:14:16.603Z,3.42
2023-03-15T07:14:58.266Z,3.13
2023-03-15T07:15:40.429Z,3.40
2023-03-15T07:16:22.227Z,4.03
2023-03-15T07:17:04.616Z,3.50
2023-03-15T07:17:46.308Z,4.10
2023-03-15T07:18:27.953Z,2.75
2023-03-15T07:19:09.540Z,4.18
2023-03-15T07:19:56.656Z,2.05
2023-03-15T07:20:38.847Z,3.28
2023-03-15T07:21:20.436Z,3.15
2023-03-15T07:22:02.096Z,3.22
2023-03-15T07:22:45.548Z,2.85
2023-03-15T07:23:27.437Z,2.63
2023-03-15T07:24:09.090Z,2.38
2023-03-15T07:24:51.186Z,2.70
2023-03-15T07:25:37.642Z,4.20
2023-03-15T07:26:23.879Z,2.47
2023-03-15T07:27:05.661Z,3.95
2023-03-15T07:27:47.243Z,3.05
2023-03-15T07:28:29.034Z,2.75
2023-03-15T07:29:10.793Z,3.38
2023-03-15T07:29:52.439Z,1.80
2023-03-15T07:30:34.000Z,2.17
2023-03-15T07:31:15.679Z,5.82
2023-03-15T07:31:57.399Z,5.45
2023-03-15T07:32:39.231Z,4.30
2023-03-15T07:33:24.166Z,3.63
2023-03-15T07:34:06.042Z,3.38
2023-03-15T07:34:47.649Z,2.38
2023-03-15T07:35:29.308Z,3.78
2023-03-15T07:36:11.058Z,4.75
2023-03-15T07:36:52.714Z,2.00
2023-03-15T07:37:34.551Z,2.72
2023-03-15T07:38:16.651Z,4.32
2023-03-15T07:38:58.194Z,3.50
2023-03-15T07:39:39.864Z,6.60
2023-03-15T07:40:21.498Z,2.47
2023-03-15T07:41:05.838Z,4.40
2023-03-15T07:41:47.483Z,3.33
2023-03-15T07:42:38.355Z,3.70
2023-03-15T07:43:20.377Z,2.83
2023-03-15T07:44:05.624Z,3.88
2023-03-15T07:44:47.372Z,2.83
2023-03-15T07:45:29.062Z,3.65
2023-03-15T07:46:10.923Z,3.42
2023-03-15T07:46:52.742Z,3.38
2023-03-15T07:47:34.967Z,4.57
2023-03-15T07:48:17.080Z,4.20
2023-03-15T07:48:58.686Z,2.78
2023-03-15T07:49:40.526Z,4.05
2023-03-15T07:50:22.486Z,3.97
2023-03-15T07:51:04.570Z,3.72
2023-03-15T07:51:46.322Z,3.25
2023-03-15T07:52:28.028Z,3.90
2023-03-15T07:53:09.658Z,4.88
2023-03-15T07:53:51.392Z,4.03
2023-03-15T07:54:34.312Z,4.90
2023-03-15T07:55:15.981Z,3.47
2023-03-15T07:55:57.672Z,2.55
2023-03-15T07:56:39.349Z,4.05
2023-03-15T07:57:21.002Z,3.15
2023-03-15T07:58:03.504Z,4.20
2023-03-15T07:58:45.138Z,2.85
2023-03-15T07:59:27.216Z,4.35
2023-03-15T08:00:12.026Z,3.20
2023-03-15T08:00:57.636Z,3.80
2023-03-15T08:01:39.378Z,3.55
2023-03-15T08:02:21.225Z,3.38
2023-03-15T08:03:03.029Z,4.18
2023-03-15T08:03:44.944Z,5.63
2023-03-15T08:04:26.633Z,3.17
2023-03-15T08:05:08.555Z,2.85
2023-03-15T08:05:51.076Z,3.47
2023-03-15T08:06:32.709Z,3.78
2023-03-15T08:07:14.351Z,5.20
2023-03-15T08:07:56.581Z,2.15
2023-03-15T08:08:38.212Z,6.75
2023-03-15T08:09:19.853Z,3.78
2023-03-15T08:10:01.743Z,3.50
2023-03-15T08:10:44.854Z,2.38
2023-03-15T08:11:26.457Z,3.70
2023-03-15T08:12:08.362Z,2.35
2023-03-15T08:12:49.973Z,2.72
2023-03-15T08:13:31.613Z,3.63
2023-03-15T08:14:13.420Z,4.47
2023-03-15T08:14:55.075Z,3.45
2023-03-15T08:15:36.932Z,3.20
2023-03-15T08:16:18.566Z,4.10
2023-03-15T08:17:00.401Z,4.72
2023-03-15T08:17:42.864Z,2.90
2023-03-15T08:18:24.497Z,3.35
2023-03-15T08:19:06.518Z,4.35
2023-03-15T08:19:48.369Z,3.63
2023-03-15T08:20:30.187Z,2.00
2023-03-15T08:21:12.074Z,2.75
2023-03-15T08:21:53.944Z,3.30
2023-03-15T08:22:38.120Z,4.30
2023-03-15T08:23:20.131Z,2.58
2023-03-15T08:24:02.131Z,2.70
2023-03-15T08:24:45.440Z,4.88
2023-03-15T08:25:27.489Z,4.25
2023-03-15T08:26:09.190Z,3.13
2023-03-15T08:26:51.334Z,2.58
2023-03-15T08:27:33.015Z,3.13
2023-03-15T08:28:14.715Z,3.42
2023-03-15T08:28:56.381Z,4.65
2023-03-15T08:29:38.068Z,4.60
2023-03-15T08:30:20.881Z,2.55
2023-03-15T08:31:07.519Z,4.30
2023-03-15T08:31:49.289Z,3.63
2023-03-15T08:32:30.954Z,3.85
2023-03-15T08:33:12.678Z,3.22
2023-03-15T08:33:54.304Z,3.38
2023-03-15T08:34:36.012Z,6.75
2023-03-15T08:35:19.208Z,5.38
2023-03-15T08:36:01.285Z,2.97
2023-03-15T08:36:43.069Z,2.78
2023-03-15T08:37:25.020Z,2.90
2023-03-15T08:38:06.750Z,3.28
2023-03-15T08:38:48.373Z,3.17
2023-03-15T08:39:30.099Z,3.42
2023-03-15T08:40:12.297Z,3.10
2023-03-15T08:40:57.837Z,3.05
2023-03-15T08:41:40.895Z,2.47
2023-03-15T08:42:22.881Z,4.10
2023-03-15T08:43:04.638Z,4.75
2023-03-15T08:43:46.326Z,4.00
2023-03-15T08:44:27.991Z,2.85
2023-03-15T08:45:10.408Z,2.95
2023-03-15T08:46:00.832Z,4.05
2023-03-15T08:46:45.859Z,4.38
2023-03-15T08:47:29.882Z,2.80
2023-03-15T08:48:37.740Z,4.35
2023-03-15T08:49:19.590Z,2.22
2023-03-15T08:50:06.998Z,3.55
2023-03-15T08:50:48.727Z,4.22
2023-03-15T08:51:31.041Z,2.92
2023-03-15T08:52:12.886Z,3.35
2023-03-15T08:52:54.673Z,3.28
2023-03-15T08:53:36.312Z,5.82
2023-03-15T08:54:18.000Z,4.22
2023-03-15T08:54:59.716Z,4.22
2023-03-15T08:55:41.338Z,3.60
2023-03-15T08:56:23.054Z,2.95
2023-03-15T08:57:04.734Z,6.63
2023-03-15T08:57:46.595Z,2.97
2023-03-15T08:58:28.647Z,5.30
2023-03-15T08:59:12.822Z,2.67
2023-03-15T08:59:56.198Z,1.90
2023-03-15T09:00:37.871Z,2.92
2023-03-15T09:01:19.501Z,3.92
2023-03-15T09:02:01.442Z,3.85
2023-03-15T09:02:43.391Z,5.47
2023-03-15T09:03:25.195Z,2.67
2023-03-15T09:04:06.982Z,3.17
2023-03-15T09:04:48.966Z,2.05
2023-03-15T09:05:30.705Z,3.00
2023-03-15T09:06:12.791Z,5.45
2023-03-15T09:06:54.446Z,4.25
2023-03-15T09:07:36.149Z,4.43
2023-03-15T09:08:21.035Z,5.47
2023-03-15T09:09:03.682Z,3.65
2023-03-15T09:09:48.060Z,4.20
2023-03-15T09:10:29.731Z,4.97
2023-03-15T09:11:11.335Z,7.07
2023-03-15T09:11:52.966Z,3.22
2023-03-15T09:12:34.639Z,2.63
2023-03-15T09:13:16.216Z,5.63
2023-03-15T09:13:57.834Z,3.08
2023-03-15T09:14:39.555Z,5.05
2023-03-15T09:15:21.670Z,4.63
2023-03-15T09:16:03.533Z,2.30
2023-03-15T09:16:45.222Z,3.78
2023-03-15T09:17:26.910Z,5.25
2023-03-15T09:18:08.565Z,2.33
2023-03-15T09:18:50.257Z,2.60
2023-03-15T09:19:32.305Z,5.13
2023-03-15T09:20:16.898Z,3.75
2023-03-15T09:20:58.644Z,2.95
2023-03-15T09:21:40.678Z,1.95
2023-03-15T09:22:38.161Z,3.53
2023-03-15T09:23:20.877Z,2.70
2023-03-15T09:24:02.619Z,3.70
2023-03-15T09:24:44.252Z,3.70
2023-03-15T09:25:26.356Z,3.35
2023-03-15T09:26:08.055Z,5.13
2023-03-15T09:26:49.747Z,3.90
2023-03-15T09:27:31.904Z,4.05
2023-03-15T09:28:13.928Z,2.80
2023-03-15T09:28:55.543Z,3.70
2023-03-15T09:29:37.698Z,2.88
2023-03-15T09:30:19.970Z,3.08
2023-03-15T09:31:04.827Z,1.85
2023-03-15T09:31:46.528Z,2.47
2023-03-15T09:32:28.268Z,3.83
2023-03-15T09:33:10.242Z,2.08
2023-03-15T09:33:51.976Z,1.30
2023-03-15T09:34:41.708Z,4.72
2023-03-15T09:35:23.898Z,3.97
2023-03-15T09:36:06.069Z,3.22
2023-03-15T09:36:52.912Z,4.40
2023-03-15T09:37:35.249Z,3.90
2023-03-15T09:38:17.859Z,1.33
2023-03-15T09:39:01.522Z,2.15
2023-03-15T09:39:43.363Z,2.08
2023-03-15T09:40:31.504Z,3.25
2023-03-15T09:41:34.800Z,3.42
2023-03-15T09:42:22.696Z,2.25
2023-03-15T09:43:07.080Z,4.35
2023-03-15T09:44:02.202Z,1.88
2023-03-15T09:44:48.213Z,4.88
2023-03-15T09:46:06.912Z,3.33
2023-03-15T09:47:10.250Z,2.03
2023-03-15T09:48:17.307Z,2.28
2023-03-15T09:49:04.053Z,2.72
2023-03-15T09:50:05.089Z,2.72
2023-03-15T09:51:00.915Z,1.55
2023-03-15T09:52:02.566Z,1.83
2023-03-15T09:53:04.028Z,1.50
2023-03-15T09:53:54.529Z,2.13
2023-03-15T09:54:41.864Z,2.72
2023-03-15T09:55:26.427Z,2.10
2023-03-15T09:56:27.683Z,2.38
2023-03-15T09:57:49.925Z,2.85
2023-03-15T09:58:35.766Z,2.53
2023-03-15T09:59:22.678Z,2.10
2023-03-15T10:00:12.489Z,2.88
2023-03-15T10:01:00.002Z,3.42
2023-03-15T10:01:44.049Z,3.45
2023-03-15T10:02:29.356Z,2.97
2023-03-15T10:03:21.520Z,2.53
2023-03-15T10:04:13.591Z,1.88
2023-03-15T10:05:10.977Z,2.22
2023-03-15T10:05:58.565Z,1.85
2023-03-15T10:06:47.231Z,2.03
2023-03-15T10:07:28.978Z,3.45
2023-03-15T10:08:14.359Z,3.67
2023-03-15T10:08:59.115Z,3.40
2023-03-15T10:09:40.924Z,1.95
2023-03-15T10:10:37.337Z,2.47